sensor_id;sensor_type;location;lat;lon;timestamp;P1;durP1;ratioP1;P2;durP2;ratioP2
52816;SDS011;38687;43.330;21.924;2023-03-11T00:01:30;23.98;;;13.73;;
52816;SDS011;38687;43.330;21.924;2023-03-11T00:03:55;28.25;;;15.80;;
52816;SDS011;38687;43.330;21.924;2023-03-11T00:06:21;19.05;;;11.80;;
52816;SDS011;38687;43.330;21.924;2023-03-11T00:08:46;20.85;;;12.30;;
52816;SDS011;38687;43.330;21.924;2023-03-11T00:11:11;8.20;;;4.70;;
52816;SDS011;38687;43.330;21.924;2023-03-11T00:13:37;8.65;;;4.93;;
52816;SDS011;38687;43.330;21.924;2023-03-11T00:16:03;7.07;;;3.03;;
52816;SDS011;38687;43.330;21.924;2023-03-11T00:18:29;3.28;;;2.95;;
52816;SDS011;38687;43.330;21.924;2023-03-11T00:20:55;7.18;;;4.18;;
52816;SDS011;38687;43.330;21.924;2023-03-11T00:23:23;3.97;;;2.80;;
52816;SDS011;38687;43.330;21.924;2023-03-11T00:25:49;3.45;;;2.15;;
52816;SDS011;38687;43.330;21.924;2023-03-11T00:28:15;3.47;;;2.55;;
52816;SDS011;38687;43.330;21.924;2023-03-11T00:30:41;4.57;;;3.00;;
52816;SDS011;38687;43.330;21.924;2023-03-11T00:33:09;7.70;;;4.30;;
52816;SDS011;38687;43.330;21.924;2023-03-11T00:35:36;6.57;;;3.88;;
52816;SDS011;38687;43.330;21.924;2023-03-11T00:38:03;3.42;;;2.30;;
52816;SDS011;38687;43.330;21.924;2023-03-11T00:40:33;2.00;;;1.67;;
52816;SDS011;38687;43.330;21.924;2023-03-11T00:42:59;2.42;;;1.60;;
52816;SDS011;38687;43.330;21.924;2023-03-11T00:45:25;2.22;;;1.67;;
52816;SDS011;38687;43.330;21.924;2023-03-11T00:47:52;2.67;;;1.75;;
52816;SDS011;38687;43.330;21.924;2023-03-11T00:50:19;3.83;;;2.60;;
52816;SDS011;38687;43.330;21.924;2023-03-11T00:52:48;3.97;;;2.38;;
52816;SDS011;38687;43.330;21.924;2023-03-11T00:55:16;4.10;;;2.42;;
52816;SDS011;38687;43.330;21.924;2023-03-11T00:57:43;3.85;;;1.85;;
52816;SDS011;38687;43.330;21.924;2023-03-11T01:00:14;2.88;;;1.85;;
52816;SDS011;38687;43.330;21.924;2023-03-11T01:02:40;1.77;;;1.60;;
52816;SDS011;38687;43.330;21.924;2023-03-11T01:05:06;3.28;;;1.83;;
52816;SDS011;38687;43.330;21.924;2023-03-11T01:07:32;3.20;;;1.70;;
52816;SDS011;38687;43.330;21.924;2023-03-11T01:09:58;3.75;;;2.20;;
52816;SDS011;38687;43.330;21.924;2023-03-11T01:12:24;2.33;;;1.88;;
52816;SDS011;38687;43.330;21.924;2023-03-11T01:14:49;3.67;;;2.13;;
52816;SDS011;38687;43.330;21.924;2023-03-11T01:17:15;2.88;;;1.88;;
52816;SDS011;38687;43.330;21.924;2023-03-11T01:19:40;1.98;;;1.88;;
52816;SDS011;38687;43.330;21.924;2023-03-11T01:22:05;2.63;;;2.42;;
52816;SDS011;38687;43.330;21.924;2023-03-11T01:24:31;3.88;;;2.55;;
52816;SDS011;38687;43.330;21.924;2023-03-11T01:26:56;5.55;;;3.75;;
52816;SDS011;38687;43.330;21.924;2023-03-11T01:29:22;7.57;;;4.25;;
52816;SDS011;38687;43.330;21.924;2023-03-11T01:31:47;6.03;;;4.20;;
52816;SDS011;38687;43.330;21.924;2023-03-11T01:34:12;5.40;;;3.80;;
52816;SDS011;38687;43.330;21.924;2023-03-11T01:36:38;8.27;;;4.82;;
52816;SDS011;38687;43.330;21.924;2023-03-11T01:39:03;8.85;;;4.55;;
52816;SDS011;38687;43.330;21.924;2023-03-11T01:41:28;11.35;;;6.18;;
52816;SDS011;38687;43.330;21.924;2023-03-11T01:43:54;5.55;;;3.67;;
52816;SDS011;38687;43.330;21.924;2023-03-11T01:46:21;7.05;;;3.90;;
52816;SDS011;38687;43.330;21.924;2023-03-11T01:48:51;5.80;;;3.60;;
52816;SDS011;38687;43.330;21.924;2023-03-11T01:51:28;3.38;;;2.72;;
52816;SDS011;38687;43.330;21.924;2023-03-11T01:53:55;8.57;;;4.20;;
52816;SDS011;38687;43.330;21.924;2023-03-11T01:56:22;4.97;;;3.72;;
52816;SDS011;38687;43.330;21.924;2023-03-11T01:58:48;5.65;;;3.80;;
52816;SDS011;38687;43.330;21.924;2023-03-11T02:01:16;5.65;;;3.35;;
52816;SDS011;38687;43.330;21.924;2023-03-11T02:03:44;4.88;;;3.17;;
52816;SDS011;38687;43.330;21.924;2023-03-11T02:06:14;6.97;;;4.10;;
52816;SDS011;38687;43.330;21.924;2023-03-11T02:08:41;4.53;;;3.05;;
52816;SDS011;38687;43.330;21.924;2023-03-11T02:11:08;5.43;;;3.15;;
52816;SDS011;38687;43.330;21.924;2023-03-11T02:13:35;5.00;;;2.88;;
52816;SDS011;38687;43.330;21.924;2023-03-11T02:16:02;6.22;;;3.28;;
52816;SDS011;38687;43.330;21.924;2023-03-11T02:18:28;5.65;;;3.30;;
52816;SDS011;38687;43.330;21.924;2023-03-11T02:29:28;5.18;;;3.60;;
52816;SDS011;38687;43.330;21.924;2023-03-11T02:31:54;5.93;;;3.78;;
52816;SDS011;38687;43.330;21.924;2023-03-11T02:34:28;3.50;;;2.95;;
52816;SDS011;38687;43.330;21.924;2023-03-11T02:36:55;4.90;;;2.85;;
52816;SDS011;38687;43.330;21.924;2023-03-11T02:39:54;6.05;;;3.63;;
52816;SDS011;38687;43.330;21.924;2023-03-11T02:44:50;4.00;;;3.55;;
52816;SDS011;38687;43.330;21.924;2023-03-11T02:47:22;5.07;;;3.42;;
52816;SDS011;38687;43.330;21.924;2023-03-11T02:49:50;6.13;;;3.97;;
52816;SDS011;38687;43.330;21.924;2023-03-11T02:52:16;7.07;;;3.88;;
52816;SDS011;38687;43.330;21.924;2023-03-11T02:54:42;5.07;;;3.40;;
52816;SDS011;38687;43.330;21.924;2023-03-11T02:57:07;4.82;;;3.53;;
52816;SDS011;38687;43.330;21.924;2023-03-11T02:59:32;5.70;;;3.40;;
52816;SDS011;38687;43.330;21.924;2023-03-11T03:02:01;7.35;;;3.50;;
52816;SDS011;38687;43.330;21.924;2023-03-11T03:04:26;5.68;;;3.55;;
52816;SDS011;38687;43.330;21.924;2023-03-11T03:06:52;5.55;;;3.63;;
52816;SDS011;38687;43.330;21.924;2023-03-11T03:09:17;8.45;;;5.47;;
52816;SDS011;38687;43.330;21.924;2023-03-11T03:11:42;8.95;;;5.93;;
52816;SDS011;38687;43.330;21.924;2023-03-11T03:14:08;13.57;;;8.40;;
52816;SDS011;38687;43.330;21.924;2023-03-11T03:16:33;19.63;;;10.40;;
52816;SDS011;38687;43.330;21.924;2023-03-11T03:18:58;18.73;;;9.27;;
52816;SDS011;38687;43.330;21.924;2023-03-11T03:21:24;14.90;;;8.32;;
52816;SDS011;38687;43.330;21.924;2023-03-11T03:23:49;14.27;;;9.00;;
52816;SDS011;38687;43.330;21.924;2023-03-11T03:26:14;12.27;;;7.88;;
52816;SDS011;38687;43.330;21.924;2023-03-11T03:28:40;8.70;;;6.47;;
52816;SDS011;38687;43.330;21.924;2023-03-11T03:31:06;11.60;;;7.32;;
52816;SDS011;38687;43.330;21.924;2023-03-11T03:33:32;9.65;;;5.95;;
52816;SDS011;38687;43.330;21.924;2023-03-11T03:35:58;5.60;;;4.57;;
52816;SDS011;38687;43.330;21.924;2023-03-11T03:38:23;7.13;;;4.78;;
52816;SDS011;38687;43.330;21.924;2023-03-11T03:40:49;6.38;;;4.68;;
52816;SDS011;38687;43.330;21.924;2023-03-11T03:43:14;6.72;;;4.82;;
52816;SDS011;38687;43.330;21.924;2023-03-11T03:45:39;8.45;;;4.47;;
52816;SDS011;38687;43.330;21.924;2023-03-11T03:48:05;8.95;;;5.22;;
52816;SDS011;38687;43.330;21.924;2023-03-11T03:50:31;10.70;;;5.85;;
52816;SDS011;38687;43.330;21.924;2023-03-11T03:52:56;9.02;;;5.68;;
52816;SDS011;38687;43.330;21.924;2023-03-11T03:55:21;7.10;;;4.88;;
52816;SDS011;38687;43.330;21.924;2023-03-11T03:57:47;10.05;;;7.05;;
52816;SDS011;38687;43.330;21.924;2023-03-11T04:00:12;8.98;;;6.00;;
52816;SDS011;38687;43.330;21.924;2023-03-11T04:02:38;6.40;;;4.20;;
52816;SDS011;38687;43.330;21.924;2023-03-11T04:05:04;6.28;;;4.40;;
52816;SDS011;38687;43.330;21.924;2023-03-11T04:07:29;6.80;;;4.65;;
52816;SDS011;38687;43.330;21.924;2023-03-11T04:09:55;5.90;;;4.75;;
52816;SDS011;38687;43.330;21.924;2023-03-11T04:12:26;6.65;;;4.90;;
52816;SDS011;38687;43.330;21.924;2023-03-11T04:14:52;7.00;;;5.40;;
52816;SDS011;38687;43.330;21.924;2023-03-11T04:17:17;8.38;;;5.80;;
52816;SDS011;38687;43.330;21.924;2023-03-11T04:19:42;8.27;;;5.75;;
52816;SDS011;38687;43.330;21.924;2023-03-11T04:22:08;9.30;;;5.40;;
52816;SDS011;38687;43.330;21.924;2023-03-11T04:24:33;8.00;;;5.50;;
52816;SDS011;38687;43.330;21.924;2023-03-11T04:26:59;9.00;;;5.57;;
52816;SDS011;38687;43.330;21.924;2023-03-11T04:29:24;9.90;;;6.25;;
52816;SDS011;38687;43.330;21.924;2023-03-11T04:31:50;14.15;;;8.85;;
52816;SDS011;38687;43.330;21.924;2023-03-11T04:34:21;14.73;;;9.07;;
52816;SDS011;38687;43.330;21.924;2023-03-11T04:36:46;11.13;;;6.95;;
52816;SDS011;38687;43.330;21.924;2023-03-11T04:39:15;8.82;;;5.47;;
52816;SDS011;38687;43.330;21.924;2023-03-11T04:41:41;12.38;;;6.57;;
52816;SDS011;38687;43.330;21.924;2023-03-11T04:44:06;12.38;;;6.25;;
52816;SDS011;38687;43.330;21.924;2023-03-11T04:46:32;7.82;;;5.35;;
52816;SDS011;38687;43.330;21.924;2023-03-11T04:48:57;7.57;;;4.10;;
52816;SDS011;38687;43.330;21.924;2023-03-11T04:51:22;10.15;;;5.60;;
52816;SDS011;38687;43.330;21.924;2023-03-11T04:53:48;11.02;;;6.45;;
52816;SDS011;38687;43.330;21.924;2023-03-11T04:56:13;9.50;;;5.22;;
52816;SDS011;38687;43.330;21.924;2023-03-11T04:58:38;9.02;;;5.95;;
52816;SDS011;38687;43.330;21.924;2023-03-11T05:01:04;11.30;;;6.95;;
52816;SDS011;38687;43.330;21.924;2023-03-11T05:03:29;24.90;;;12.20;;
52816;SDS011;38687;43.330;21.924;2023-03-11T05:05:58;20.83;;;9.73;;
52816;SDS011;38687;43.330;21.924;2023-03-11T05:08:24;13.23;;;7.15;;
52816;SDS011;38687;43.330;21.924;2023-03-11T05:10:51;17.42;;;9.13;;
52816;SDS011;38687;43.330;21.924;2023-03-11T05:13:19;20.60;;;10.02;;
52816;SDS011;38687;43.330;21.924;2023-03-11T05:15:45;16.50;;;8.68;;
52816;SDS011;38687;43.330;21.924;2023-03-11T05:18:10;7.88;;;5.38;;
52816;SDS011;38687;43.330;21.924;2023-03-11T05:20:36;9.82;;;6.68;;
52816;SDS011;38687;43.330;21.924;2023-03-11T05:23:04;31.10;;;12.40;;
52816;SDS011;38687;43.330;21.924;2023-03-11T05:25:30;21.10;;;10.55;;
52816;SDS011;38687;43.330;21.924;2023-03-11T05:27:55;18.92;;;10.73;;
52816;SDS011;38687;43.330;21.924;2023-03-11T05:30:21;51.80;;;23.25;;
52816;SDS011;38687;43.330;21.924;2023-03-11T05:32:47;50.60;;;24.73;;
52816;SDS011;38687;43.330;21.924;2023-03-11T05:35:13;32.58;;;14.75;;
52816;SDS011;38687;43.330;21.924;2023-03-11T05:37:38;30.15;;;15.30;;
52816;SDS011;38687;43.330;21.924;2023-03-11T05:40:05;27.40;;;15.25;;
52816;SDS011;38687;43.330;21.924;2023-03-11T05:42:32;22.15;;;12.90;;
52816;SDS011;38687;43.330;21.924;2023-03-11T05:44:59;24.70;;;16.80;;
52816;SDS011;38687;43.330;21.924;2023-03-11T05:47:24;24.17;;;14.60;;
52816;SDS011;38687;43.330;21.924;2023-03-11T05:49:49;21.88;;;15.15;;
52816;SDS011;38687;43.330;21.924;2023-03-11T05:52:15;19.30;;;14.52;;
52816;SDS011;38687;43.330;21.924;2023-03-11T05:54:41;17.85;;;11.57;;
52816;SDS011;38687;43.330;21.924;2023-03-11T05:57:06;19.02;;;12.52;;
52816;SDS011;38687;43.330;21.924;2023-03-11T05:59:31;30.05;;;18.90;;
52816;SDS011;38687;43.330;21.924;2023-03-11T06:01:59;28.27;;;17.70;;
52816;SDS011;38687;43.330;21.924;2023-03-11T06:04:24;21.63;;;13.00;;
52816;SDS011;38687;43.330;21.924;2023-03-11T06:06:50;19.42;;;11.18;;
52816;SDS011;38687;43.330;21.924;2023-03-11T06:09:15;19.23;;;12.75;;
52816;SDS011;38687;43.330;21.924;2023-03-11T06:11:41;18.92;;;12.60;;
52816;SDS011;38687;43.330;21.924;2023-03-11T06:14:09;21.45;;;14.45;;
52816;SDS011;38687;43.330;21.924;2023-03-11T06:16:36;25.60;;;15.75;;
52816;SDS011;38687;43.330;21.924;2023-03-11T06:19:01;26.67;;;15.70;;
52816;SDS011;38687;43.330;21.924;2023-03-11T06:21:26;16.90;;;13.52;;
52816;SDS011;38687;43.330;21.924;2023-03-11T06:23:52;12.68;;;9.30;;
52816;SDS011;38687;43.330;21.924;2023-03-11T06:26:18;16.30;;;8.98;;
52816;SDS011;38687;43.330;21.924;2023-03-11T06:28:47;13.93;;;8.18;;
52816;SDS011;38687;43.330;21.924;2023-03-11T06:31:18;21.10;;;13.10;;
52816;SDS011;38687;43.330;21.924;2023-03-11T06:33:45;16.08;;;11.10;;
52816;SDS011;38687;43.330;21.924;2023-03-11T06:36:12;19.75;;;12.80;;
52816;SDS011;38687;43.330;21.924;2023-03-11T06:38:41;19.40;;;12.55;;
52816;SDS011;38687;43.330;21.924;2023-03-11T06:41:07;12.93;;;10.40;;
52816;SDS011;38687;43.330;21.924;2023-03-11T06:43:33;17.02;;;11.63;;
52816;SDS011;38687;43.330;21.924;2023-03-11T06:45:59;18.20;;;11.85;;
52816;SDS011;38687;43.330;21.924;2023-03-11T06:48:25;20.80;;;14.13;;
52816;SDS011;38687;43.330;21.924;2023-03-11T06:50:52;10.05;;;5.55;;
52816;SDS011;38687;43.330;21.924;2023-03-11T06:53:24;9.23;;;7.03;;
52816;SDS011;38687;43.330;21.924;2023-03-11T06:56:26;18.27;;;14.55;;
52816;SDS011;38687;43.330;21.924;2023-03-11T06:58:45;10.02;;;8.13;;
52816;SDS011;38687;43.330;21.924;2023-03-11T07:01:14;14.13;;;9.50;;
52816;SDS011;38687;43.330;21.924;2023-03-11T07:03:41;15.20;;;10.40;;
52816;SDS011;38687;43.330;21.924;2023-03-11T07:06:11;19.92;;;13.13;;
52816;SDS011;38687;43.330;21.924;2023-03-11T07:08:37;24.58;;;15.80;;
52816;SDS011;38687;43.330;21.924;2023-03-11T07:11:11;25.60;;;18.05;;
52816;SDS011;38687;43.330;21.924;2023-03-11T07:13:38;40.58;;;36.17;;
52816;SDS011;38687;43.330;21.924;2023-03-11T07:16:04;25.15;;;17.35;;
52816;SDS011;38687;43.330;21.924;2023-03-11T07:18:30;18.25;;;10.82;;
52816;SDS011;38687;43.330;21.924;2023-03-11T07:20:56;19.13;;;11.57;;
52816;SDS011;38687;43.330;21.924;2023-03-11T07:23:22;24.23;;;12.32;;
52816;SDS011;38687;43.330;21.924;2023-03-11T07:25:47;15.80;;;11.02;;
52816;SDS011;38687;43.330;21.924;2023-03-11T07:28:13;12.50;;;8.00;;
52816;SDS011;38687;43.330;21.924;2023-03-11T07:30:38;12.88;;;8.65;;
52816;SDS011;38687;43.330;21.924;2023-03-11T07:33:07;16.13;;;10.35;;
52816;SDS011;38687;43.330;21.924;2023-03-11T07:35:34;17.33;;;11.13;;
52816;SDS011;38687;43.330;21.924;2023-03-11T07:37:59;14.35;;;9.48;;
52816;SDS011;38687;43.330;21.924;2023-03-11T07:40:25;13.40;;;8.88;;
52816;SDS011;38687;43.330;21.924;2023-03-11T07:42:50;17.40;;;12.18;;
52816;SDS011;38687;43.330;21.924;2023-03-11T07:45:18;20.30;;;13.98;;
52816;SDS011;38687;43.330;21.924;2023-03-11T07:47:44;13.07;;;10.45;;
52816;SDS011;38687;43.330;21.924;2023-03-11T07:50:09;7.05;;;4.85;;
52816;SDS011;38687;43.330;21.924;2023-03-11T07:52:35;7.60;;;5.55;;
52816;SDS011;38687;43.330;21.924;2023-03-11T07:55:00;5.30;;;4.00;;
52816;SDS011;38687;43.330;21.924;2023-03-11T07:57:26;18.52;;;10.70;;
52816;SDS011;38687;43.330;21.924;2023-03-11T07:59:51;7.88;;;6.60;;
52816;SDS011;38687;43.330;21.924;2023-03-11T08:02:16;10.32;;;7.22;;
52816;SDS011;38687;43.330;21.924;2023-03-11T08:04:42;28.15;;;17.02;;
52816;SDS011;38687;43.330;21.924;2023-03-11T08:07:07;12.88;;;8.75;;
52816;SDS011;38687;43.330;21.924;2023-03-11T08:09:33;14.73;;;9.20;;
52816;SDS011;38687;43.330;21.924;2023-03-11T08:11:59;8.00;;;4.93;;
52816;SDS011;38687;43.330;21.924;2023-03-11T08:14:24;19.98;;;13.65;;
52816;SDS011;38687;43.330;21.924;2023-03-11T08:16:49;17.98;;;10.00;;
52816;SDS011;38687;43.330;21.924;2023-03-11T08:19:18;9.98;;;5.57;;
52816;SDS011;38687;43.330;21.924;2023-03-11T08:21:43;12.57;;;7.07;;
52816;SDS011;38687;43.330;21.924;2023-03-11T08:24:10;38.17;;;22.85;;
52816;SDS011;38687;43.330;21.924;2023-03-11T08:26:36;6.97;;;4.97;;
52816;SDS011;38687;43.330;21.924;2023-03-11T08:29:01;7.38;;;4.70;;
52816;SDS011;38687;43.330;21.924;2023-03-11T08:31:28;36.50;;;22.83;;
52816;SDS011;38687;43.330;21.924;2023-03-11T08:33:56;11.70;;;8.65;;
52816;SDS011;38687;43.330;21.924;2023-03-11T08:36:22;6.88;;;4.70;;
52816;SDS011;38687;43.330;21.924;2023-03-11T08:38:48;4.40;;;3.92;;
52816;SDS011;38687;43.330;21.924;2023-03-11T08:41:13;7.03;;;4.00;;
52816;SDS011;38687;43.330;21.924;2023-03-11T08:43:39;5.40;;;4.30;;
52816;SDS011;38687;43.330;21.924;2023-03-11T08:46:06;5.95;;;4.10;;
52816;SDS011;38687;43.330;21.924;2023-03-11T08:48:32;11.35;;;5.40;;
52816;SDS011;38687;43.330;21.924;2023-03-11T08:50:57;7.65;;;4.47;;
52816;SDS011;38687;43.330;21.924;2023-03-11T08:53:23;7.50;;;5.55;;
52816;SDS011;38687;43.330;21.924;2023-03-11T08:55:51;6.43;;;4.30;;
52816;SDS011;38687;43.330;21.924;2023-03-11T08:58:17;8.13;;;4.65;;
52816;SDS011;38687;43.330;21.924;2023-03-11T09:00:43;8.27;;;5.32;;
52816;SDS011;38687;43.330;21.924;2023-03-11T09:03:09;16.02;;;10.85;;
52816;SDS011;38687;43.330;21.924;2023-03-11T09:05:35;8.32;;;5.10;;
52816;SDS011;38687;43.330;21.924;2023-03-11T09:08:01;8.48;;;4.78;;
52816;SDS011;38687;43.330;21.924;2023-03-11T09:10:27;13.38;;;10.00;;
52816;SDS011;38687;43.330;21.924;2023-03-11T09:12:55;16.23;;;9.65;;
52816;SDS011;38687;43.330;21.924;2023-03-11T09:15:21;10.88;;;7.88;;
52816;SDS011;38687;43.330;21.924;2023-03-11T09:17:46;12.50;;;7.90;;
52816;SDS011;38687;43.330;21.924;2023-03-11T09:20:12;10.57;;;7.45;;
52816;SDS011;38687;43.330;21.924;2023-03-11T09:22:38;12.75;;;8.95;;
52816;SDS011;38687;43.330;21.924;2023-03-11T09:25:04;12.30;;;8.38;;
52816;SDS011;38687;43.330;21.924;2023-03-11T09:27:30;13.63;;;9.57;;
52816;SDS011;38687;43.330;21.924;2023-03-11T09:29:55;11.13;;;8.65;;
52816;SDS011;38687;43.330;21.924;2023-03-11T09:32:21;13.35;;;8.77;;
52816;SDS011;38687;43.330;21.924;2023-03-11T09:34:46;13.02;;;8.73;;
52816;SDS011;38687;43.330;21.924;2023-03-11T09:37:12;7.60;;;6.28;;
52816;SDS011;38687;43.330;21.924;2023-03-11T09:39:38;12.73;;;9.48;;
52816;SDS011;38687;43.330;21.924;2023-03-11T09:42:15;13.70;;;8.57;;
52816;SDS011;38687;43.330;21.924;2023-03-11T09:45:03;10.50;;;7.18;;
52816;SDS011;38687;43.330;21.924;2023-03-11T09:55:20;5.03;;;3.45;;
52816;SDS011;38687;43.330;21.924;2023-03-11T09:57:50;3.63;;;2.40;;
52816;SDS011;38687;43.330;21.924;2023-03-11T10:00:16;4.40;;;3.40;;
52816;SDS011;38687;43.330;21.924;2023-03-11T10:02:43;5.03;;;3.88;;
52816;SDS011;38687;43.330;21.924;2023-03-11T10:05:12;3.25;;;2.88;;
52816;SDS011;38687;43.330;21.924;2023-03-11T10:07:42;4.60;;;2.80;;
52816;SDS011;38687;43.330;21.924;2023-03-11T10:10:11;6.00;;;3.60;;
52816;SDS011;38687;43.330;21.924;2023-03-11T10:15:49;3.38;;;2.50;;
52816;SDS011;38687;43.330;21.924;2023-03-11T10:21:19;13.27;;;7.00;;
52816;SDS011;38687;43.330;21.924;2023-03-11T10:26:47;2.58;;;2.38;;
52816;SDS011;38687;43.330;21.924;2023-03-11T10:32:23;4.25;;;3.28;;
52816;SDS011;38687;43.330;21.924;2023-03-11T10:37:58;40.33;;;22.10;;
52816;SDS011;38687;43.330;21.924;2023-03-11T10:40:34;8.82;;;5.47;;
52816;SDS011;38687;43.330;21.924;2023-03-11T10:43:20;24.15;;;12.98;;
52816;SDS011;38687;43.330;21.924;2023-03-11T10:45:51;13.25;;;6.25;;
52816;SDS011;38687;43.330;21.924;2023-03-11T10:48:18;2.65;;;2.28;;
52816;SDS011;38687;43.330;21.924;2023-03-11T10:53:20;3.25;;;2.88;;
52816;SDS011;38687;43.330;21.924;2023-03-11T10:55:50;5.60;;;3.70;;
52816;SDS011;38687;43.330;21.924;2023-03-11T10:58:20;8.40;;;5.13;;
52816;SDS011;38687;43.330;21.924;2023-03-11T11:03:27;5.03;;;3.25;;
52816;SDS011;38687;43.330;21.924;2023-03-11T11:05:57;5.50;;;3.53;;
52816;SDS011;38687;43.330;21.924;2023-03-11T11:08:27;7.53;;;4.32;;
52816;SDS011;38687;43.330;21.924;2023-03-11T11:10:54;6.43;;;3.97;;
52816;SDS011;38687;43.330;21.924;2023-03-11T11:13:24;3.05;;;2.67;;
52816;SDS011;38687;43.330;21.924;2023-03-11T11:23:35;3.95;;;3.15;;
52816;SDS011;38687;43.330;21.924;2023-03-11T11:26:21;9.82;;;5.40;;
52816;SDS011;38687;43.330;21.924;2023-03-11T11:29:12;9.13;;;5.25;;
52816;SDS011;38687;43.330;21.924;2023-03-11T11:31:39;5.53;;;3.30;;
52816;SDS011;38687;43.330;21.924;2023-03-11T11:36:53;6.45;;;5.20;;
52816;SDS011;38687;43.330;21.924;2023-03-11T11:39:21;5.50;;;3.72;;
52816;SDS011;38687;43.330;21.924;2023-03-11T11:41:48;5.97;;;3.58;;
52816;SDS011;38687;43.330;21.924;2023-03-11T11:44:14;3.28;;;2.95;;
52816;SDS011;38687;43.330;21.924;2023-03-11T11:49:34;6.60;;;3.88;;
52816;SDS011;38687;43.330;21.924;2023-03-11T11:52:08;6.90;;;3.88;;
52816;SDS011;38687;43.330;21.924;2023-03-11T11:54:42;5.57;;;3.78;;
52816;SDS011;38687;43.330;21.924;2023-03-11T11:57:11;6.93;;;3.95;;
52816;SDS011;38687;43.330;21.924;2023-03-11T11:59:46;5.78;;;4.75;;
52816;SDS011;38687;43.330;21.924;2023-03-11T12:09:54;4.80;;;3.95;;
52816;SDS011;38687;43.330;21.924;2023-03-11T12:12:51;5.15;;;4.13;;
52816;SDS011;38687;43.330;21.924;2023-03-11T12:17:51;4.32;;;3.75;;
52816;SDS011;38687;43.330;21.924;2023-03-11T12:20:31;6.93;;;4.22;;
52816;SDS011;38687;43.330;21.924;2023-03-11T12:23:04;7.60;;;4.60;;
52816;SDS011;38687;43.330;21.924;2023-03-11T12:25:35;6.13;;;4.72;;
52816;SDS011;38687;43.330;21.924;2023-03-11T12:28:18;5.47;;;3.30;;
52816;SDS011;38687;43.330;21.924;2023-03-11T12:30:51;3.63;;;2.50;;
52816;SDS011;38687;43.330;21.924;2023-03-11T12:33:34;5.95;;;4.32;;
52816;SDS011;38687;43.330;21.924;2023-03-11T12:36:04;4.00;;;3.33;;
52816;SDS011;38687;43.330;21.924;2023-03-11T12:38:35;6.22;;;4.63;;
52816;SDS011;38687;43.330;21.924;2023-03-11T12:46:06;17.58;;;9.20;;
52816;SDS011;38687;43.330;21.924;2023-03-11T12:53:51;4.43;;;3.05;;
52816;SDS011;38687;43.330;21.924;2023-03-11T12:59:01;6.72;;;4.65;;
52816;SDS011;38687;43.330;21.924;2023-03-11T13:04:13;6.93;;;2.17;;
52816;SDS011;38687;43.330;21.924;2023-03-11T13:09:36;5.70;;;1.90;;
52816;SDS011;38687;43.330;21.924;2023-03-11T13:12:01;14.38;;;2.63;;
52816;SDS011;38687;43.330;21.924;2023-03-11T13:14:30;5.65;;;3.42;;
52816;SDS011;38687;43.330;21.924;2023-03-11T13:17:21;4.45;;;3.53;;
52816;SDS011;38687;43.330;21.924;2023-03-11T13:19:55;5.07;;;2.35;;
52816;SDS011;38687;43.330;21.924;2023-03-11T13:25:30;6.70;;;3.30;;
52816;SDS011;38687;43.330;21.924;2023-03-11T13:28:00;3.45;;;2.58;;
52816;SDS011;38687;43.330;21.924;2023-03-11T13:30:37;5.60;;;2.63;;
52816;SDS011;38687;43.330;21.924;2023-03-11T13:33:14;5.60;;;2.25;;
52816;SDS011;38687;43.330;21.924;2023-03-11T13:38:44;3.35;;;2.00;;
52816;SDS011;38687;43.330;21.924;2023-03-11T13:41:35;4.85;;;2.25;;
52816;SDS011;38687;43.330;21.924;2023-03-11T13:44:16;12.38;;;7.00;;
52816;SDS011;38687;43.330;21.924;2023-03-11T13:46:48;5.25;;;2.33;;
52816;SDS011;38687;43.330;21.924;2023-03-11T13:52:33;4.05;;;1.80;;
52816;SDS011;38687;43.330;21.924;2023-03-11T13:57:48;5.00;;;2.60;;
52816;SDS011;38687;43.330;21.924;2023-03-11T14:00:16;8.85;;;4.38;;
52816;SDS011;38687;43.330;21.924;2023-03-11T14:02:55;6.22;;;3.13;;
52816;SDS011;38687;43.330;21.924;2023-03-11T14:08:10;6.28;;;2.63;;
52816;SDS011;38687;43.330;21.924;2023-03-11T14:13:18;12.18;;;4.57;;
52816;SDS011;38687;43.330;21.924;2023-03-11T14:16:03;6.55;;;3.38;;
52816;SDS011;38687;43.330;21.924;2023-03-11T14:18:47;6.13;;;3.53;;
52816;SDS011;38687;43.330;21.924;2023-03-11T14:21:28;4.07;;;2.63;;
52816;SDS011;38687;43.330;21.924;2023-03-11T14:23:58;6.68;;;3.95;;
52816;SDS011;38687;43.330;21.924;2023-03-11T14:26:28;5.22;;;4.07;;
52816;SDS011;38687;43.330;21.924;2023-03-11T14:29:06;7.57;;;3.72;;
52816;SDS011;38687;43.330;21.924;2023-03-11T14:31:38;7.50;;;4.82;;
52816;SDS011;38687;43.330;21.924;2023-03-11T14:47:14;10.07;;;5.85;;
52816;SDS011;38687;43.330;21.924;2023-03-11T14:49:43;11.43;;;5.93;;
52816;SDS011;38687;43.330;21.924;2023-03-11T14:52:12;9.13;;;6.28;;
52816;SDS011;38687;43.330;21.924;2023-03-11T14:54:42;8.10;;;6.13;;
52816;SDS011;38687;43.330;21.924;2023-03-11T14:57:18;7.75;;;5.60;;
52816;SDS011;38687;43.330;21.924;2023-03-11T14:59:47;9.00;;;4.55;;
52816;SDS011;38687;43.330;21.924;2023-03-11T15:05:02;7.18;;;5.70;;
52816;SDS011;38687;43.330;21.924;2023-03-11T15:07:34;7.82;;;5.55;;
52816;SDS011;38687;43.330;21.924;2023-03-11T15:10:01;7.90;;;4.85;;
52816;SDS011;38687;43.330;21.924;2023-03-11T15:12:31;8.77;;;5.35;;
52816;SDS011;38687;43.330;21.924;2023-03-11T15:14:58;7.03;;;5.28;;
52816;SDS011;38687;43.330;21.924;2023-03-11T15:17:24;8.45;;;6.32;;
52816;SDS011;38687;43.330;21.924;2023-03-11T15:19:52;10.88;;;6.88;;
52816;SDS011;38687;43.330;21.924;2023-03-11T15:24:58;7.03;;;5.25;;
52816;SDS011;38687;43.330;21.924;2023-03-11T15:27:29;12.05;;;8.45;;
52816;SDS011;38687;43.330;21.924;2023-03-11T15:29:56;15.52;;;8.45;;
52816;SDS011;38687;43.330;21.924;2023-03-11T15:32:38;11.45;;;8.10;;
52816;SDS011;38687;43.330;21.924;2023-03-11T15:37:38;12.80;;;7.53;;
52816;SDS011;38687;43.330;21.924;2023-03-11T15:42:48;36.55;;;16.08;;
52816;SDS011;38687;43.330;21.924;2023-03-11T15:45:18;28.20;;;12.50;;
52816;SDS011;38687;43.330;21.924;2023-03-11T15:47:45;34.40;;;16.60;;
52816;SDS011;38687;43.330;21.924;2023-03-11T15:50:29;21.88;;;12.57;;
52816;SDS011;38687;43.330;21.924;2023-03-11T15:52:56;30.55;;;17.08;;
52816;SDS011;38687;43.330;21.924;2023-03-11T15:55:23;20.05;;;11.07;;
52816;SDS011;38687;43.330;21.924;2023-03-11T15:57:49;9.90;;;7.38;;
52816;SDS011;38687;43.330;21.924;2023-03-11T16:00:20;41.63;;;22.90;;
52816;SDS011;38687;43.330;21.924;2023-03-11T16:02:49;15.15;;;9.48;;
52816;SDS011;38687;43.330;21.924;2023-03-11T16:05:16;10.07;;;6.80;;
52816;SDS011;38687;43.330;21.924;2023-03-11T16:07:43;15.45;;;9.65;;
52816;SDS011;38687;43.330;21.924;2023-03-11T16:10:09;22.95;;;12.10;;
52816;SDS011;38687;43.330;21.924;2023-03-11T16:12:35;10.43;;;6.70;;
52816;SDS011;38687;43.330;21.924;2023-03-11T16:15:01;11.13;;;7.45;;
52816;SDS011;38687;43.330;21.924;2023-03-11T16:17:26;12.77;;;7.93;;
52816;SDS011;38687;43.330;21.924;2023-03-11T16:19:51;13.07;;;6.57;;
52816;SDS011;38687;43.330;21.924;2023-03-11T16:22:25;16.27;;;11.10;;
52816;SDS011;38687;43.330;21.924;2023-03-11T16:24:59;40.75;;;21.58;;
52816;SDS011;38687;43.330;21.924;2023-03-11T16:27:26;49.75;;;24.05;;
52816;SDS011;38687;43.330;21.924;2023-03-11T16:29:52;14.15;;;8.63;;
52816;SDS011;38687;43.330;21.924;2023-03-11T16:32:17;18.52;;;10.38;;
52816;SDS011;38687;43.330;21.924;2023-03-11T16:34:42;17.90;;;9.60;;